sensor_id;sensor_type;location;lat;lon;timestamp;pressure;altitude;pressure_sealevel;temperature;humidity
17054;BME280;8643;48.824;11.422;2023-02-16T00:01:55;98042.50;;;-1.74;100.00
17054;BME280;8643;48.824;11.422;2023-02-16T00:04:27;98040.50;;;-1.78;100.00
17054;BME280;8643;48.824;11.422;2023-02-16T00:06:56;98041.53;;;-1.79;100.00
17054;BME280;8643;48.824;11.422;2023-02-16T00:09:25;98032.22;;;-1.77;100.00
17054;BME280;8643;48.824;11.422;2023-02-16T00:11:54;98031.00;;;-1.81;100.00
17054;BME280;8643;48.824;11.422;2023-02-16T00:14:40;98039.31;;;-1.82;100.00
17054;BME280;8643;48.824;11.422;2023-02-16T00:17:10;98042.81;;;-1.82;100.00
17054;BME280;8643;48.824;11.422;2023-02-16T00:19:40;98043.03;;;-1.83;100.00
17054;BME280;8643;48.824;11.422;2023-02-16T00:22:09;98042.00;;;-1.82;100.00
17054;BME280;8643;48.824;11.422;2023-02-16T00:24:38;98040.28;;;-1.77;100.00
17054;BME280;8643;48.824;11.422;2023-02-16T00:27:14;98040.28;;;-1.77;100.00
17054;BME280;8643;48.824;11.422;2023-02-16T00:29:44;98040.84;;;-1.75;100.00
17054;BME280;8643;48.824;11.422;2023-02-16T00:32:14;98033.41;;;-1.73;100.00
17054;BME280;8643;48.824;11.422;2023-02-16T00:34:43;98039.75;;;-1.67;100.00
17054;BME280;8643;48.824;11.422;2023-02-16T00:37:13;98043.00;;;-1.65;100.00
17054;BME280;8643;48.824;11.422;2023-02-16T00:39:43;98039.44;;;-1.59;100.00
17054;BME280;8643;48.824;11.422;2023-02-16T00:42:17;98047.78;;;-1.67;100.00
17054;BME280;8643;48.824;11.422;2023-02-16T00:44:50;98039.91;;;-1.80;100.00
17054;BME280;8643;48.824;11.422;2023-02-16T00:47:26;98039.06;;;-1.81;100.00
17054;BME280;8643;48.824;11.422;2023-02-16T00:49:58;98039.31;;;-1.82;100.00
17054;BME280;8643;48.824;11.422;2023-02-16T00:52:33;98034.16;;;-1.84;100.00
17054;BME280;8643;48.824;11.422;2023-02-16T00:55:05;98033.34;;;-1.85;100.00
17054;BME280;8643;48.824;11.422;2023-02-16T00:57:38;98022.94;;;-1.81;100.00
17054;BME280;8643;48.824;11.422;2023-02-16T01:00:16;98024.59;;;-1.80;100.00
17054;BME280;8643;48.824;11.422;2023-02-16T01:02:50;98033.94;;;-1.82;100.00
17054;BME280;8643;48.824;11.422;2023-02-16T01:05:19;98035.06;;;-1.90;100.00
17054;BME280;8643;48.824;11.422;2023-02-16T01:07:47;98032.16;;;-1.89;100.00
17054;BME280;8643;48.824;11.422;2023-02-16T01:10:37;98026.56;;;-1.87;100.00
17054;BME280;8643;48.824;11.422;2023-02-16T01:13:25;98024.91;;;-1.88;100.00
17054;BME280;8643;48.824;11.422;2023-02-16T01:15:56;98024.03;;;-1.82;100.00
17054;BME280;8643;48.824;11.422;2023-02-16T01:18:29;98022.16;;;-1.81;100.00
17054;BME280;8643;48.824;11.422;2023-02-16T01:20:58;98024.81;;;-1.81;100.00
17054;BME280;8643;48.824;11.422;2023-02-16T01:23:27;98019.53;;;-1.88;100.00
17054;BME280;8643;48.824;11.422;2023-02-16T01:25:56;98020.00;;;-1.91;100.00
17054;BME280;8643;48.824;11.422;2023-02-16T01:28:25;98028.41;;;-1.88;100.00
17054;BME280;8643;48.824;11.422;2023-02-16T01:30:53;98021.19;;;-1.87;100.00
17054;BME280;8643;48.824;11.422;2023-02-16T01:33:25;98022.44;;;-1.90;100.00
17054;BME280;8643;48.824;11.422;2023-02-16T01:35:56;98017.44;;;-1.86;100.00
17054;BME280;8643;48.824;11.422;2023-02-16T01:38:27;98019.09;;;-1.85;100.00
17054;BME280;8643;48.824;11.422;2023-02-16T01:41:07;98011.75;;;-1.78;100.00
17054;BME280;8643;48.824;11.422;2023-02-16T01:43:55;98016.03;;;-1.89;100.00
17054;BME280;8643;48.824;11.422;2023-02-16T01:46:35;98013.81;;;-1.92;100.00
17054;BME280;8643;48.824;11.422;2023-02-16T01:49:11;98008.00;;;-1.89;100.00
17054;BME280;8643;48.824;11.422;2023-02-16T01:51:52;98009.16;;;-1.85;100.00
17054;BME280;8643;48.824;11.422;2023-02-16T01:54:35;98005.66;;;-1.85;100.00
17054;BME280;8643;48.824;11.422;2023-02-16T01:57:22;97997.63;;;-1.85;100.00
17054;BME280;8643;48.824;11.422;2023-02-16T02:00:07;97994.44;;;-1.94;100.00
17054;BME280;8643;48.824;11.422;2023-02-16T02:02:47;98000.38;;;-1.92;100.00
17054;BME280;8643;48.824;11.422;2023-02-16T02:05:22;97993.94;;;-1.91;100.00
17054;BME280;8643;48.824;11.422;2023-02-16T02:08:21;97997.25;;;-1.89;100.00
17054;BME280;8643;48.824;11.422;2023-02-16T02:11:04;97987.09;;;-1.87;100.00
17054;BME280;8643;48.824;11.422;2023-02-16T02:13:40;97988.53;;;-1.84;100.00
17054;BME280;8643;48.824;11.422;2023-02-16T02:16:10;97982.09;;;-1.83;100.00
17054;BME280;8643;48.824;11.422;2023-02-16T02:18:39;97986.97;;;-1.92;100.00
17054;BME280;8643;48.824;11.422;2023-02-16T02:21:31;97977.03;;;-1.91;100.00
17054;BME280;8643;48.824;11.422;2023-02-16T02:25:19;97983.75;;;-2.00;100.00
17054;BME280;8643;48.824;11.422;2023-02-16T02:28:04;97980.38;;;-1.96;100.00
17054;BME280;8643;48.824;11.422;2023-02-16T02:30:46;97972.56;;;-1.97;100.00
17054;BME280;8643;48.824;11.422;2023-02-16T02:33:32;97966.75;;;-1.94;100.00
17054;BME280;8643;48.824;11.422;2023-02-16T02:36:21;97968.41;;;-1.93;100.00
17054;BME280;8643;48.824;11.422;2023-02-16T02:39:12;97971.31;;;-1.95;100.00
17054;BME280;8643;48.824;11.422;2023-02-16T02:41:52;97980.84;;;-1.99;100.00
17054;BME280;8643;48.824;11.422;2023-02-16T02:44:53;97982.50;;;-1.98;100.00
17054;BME280;8643;48.824;11.422;2023-02-16T02:47:22;97977.94;;;-1.97;100.00
17054;BME280;8643;48.824;11.422;2023-02-16T02:50:31;97970.28;;;-1.94;100.00
17054;BME280;8643;48.824;11.422;2023-02-16T02:53:04;97966.84;;;-2.01;100.00
17054;BME280;8643;48.824;11.422;2023-02-16T02:55:38;97962.53;;;-2.02;100.00
17054;BME280;8643;48.824;11.422;2023-02-16T02:58:32;97962.44;;;-1.95;100.00
17054;BME280;8643;48.824;11.422;2023-02-16T03:01:22;97962.22;;;-1.94;100.00
17054;BME280;8643;48.824;11.422;2023-02-16T03:03:55;97971.06;;;-1.93;100.00
17054;BME280;8643;48.824;11.422;2023-02-16T03:06:30;97971.84;;;-2.05;100.00
17054;BME280;8643;48.824;11.422;2023-02-16T03:09:06;97963.91;;;-1.99;100.00
17054;BME280;8643;48.824;11.422;2023-02-16T03:11:40;97965.94;;;-1.95;100.00
17054;BME280;8643;48.824;11.422;2023-02-16T03:14:34;97966.38;;;-1.98;100.00
17054;BME280;8643;48.824;11.422;2023-02-16T03:17:10;97962.13;;;-2.06;100.00
17054;BME280;8643;48.824;11.422;2023-02-16T03:19:58;97963.34;;;-2.01;100.00
17054;BME280;8643;48.824;11.422;2023-02-16T03:22:46;97965.22;;;-2.02;100.00
17054;BME280;8643;48.824;11.422;2023-02-16T03:25:36;97981.06;;;-2.00;100.00
17054;BME280;8643;48.824;11.422;2023-02-16T03:28:27;97981.75;;;-2.05;100.00
17054;BME280;8643;48.824;11.422;2023-02-16T03:31:19;97972.88;;;-2.06;100.00
17054;BME280;8643;48.824;11.422;2023-02-16T03:33:51;97959.91;;;-2.09;100.00
17054;BME280;8643;48.824;11.422;2023-02-16T03:36:22;97949.38;;;-2.10;100.00
17054;BME280;8643;48.824;11.422;2023-02-16T03:38:53;97955.28;;;-2.01;100.00
17054;BME280;8643;48.824;11.422;2023-02-16T03:41:23;97974.75;;;-2.06;100.00
17054;BME280;8643;48.824;11.422;2023-02-16T03:43:52;97971.09;;;-2.12;100.00
17054;BME280;8643;48.824;11.422;2023-02-16T03:46:21;97974.47;;;-2.16;100.00
17054;BME280;8643;48.824;11.422;2023-02-16T03:48:50;97967.81;;;-2.14;100.00
17054;BME280;8643;48.824;11.422;2023-02-16T03:51:19;97974.47;;;-2.16;100.00
17054;BME280;8643;48.824;11.422;2023-02-16T03:53:48;97969.16;;;-2.23;100.00
17054;BME280;8643;48.824;11.422;2023-02-16T03:56:17;97971.63;;;-2.22;100.00
17054;BME280;8643;48.824;11.422;2023-02-16T03:58:46;97968.69;;;-2.20;100.00
17054;BME280;8643;48.824;11.422;2023-02-16T04:01:14;97973.63;;;-2.17;100.00
17054;BME280;8643;48.824;11.422;2023-02-16T04:03:42;97974.69;;;-2.18;100.00
17054;BME280;8643;48.824;11.422;2023-02-16T04:06:12;97982.97;;;-2.19;100.00
17054;BME280;8643;48.824;11.422;2023-02-16T04:08:41;97969.97;;;-2.23;100.00
17054;BME280;8643;48.824;11.422;2023-02-16T04:11:09;97977.59;;;-2.19;100.00
17054;BME280;8643;48.824;11.422;2023-02-16T04:13:55;97973.03;;;-2.19;100.00
17054;BME280;8643;48.824;11.422;2023-02-16T04:16:24;97977.16;;;-2.16;100.00
17054;BME280;8643;48.824;11.422;2023-02-16T04:18:52;97979.06;;;-2.24;100.00
17054;BME280;8643;48.824;11.422;2023-02-16T04:21:22;97983.63;;;-2.24;100.00
17054;BME280;8643;48.824;11.422;2023-02-16T04:23:50;97984.66;;;-2.25;100.00
17054;BME280;8643;48.824;11.422;2023-02-16T04:26:19;97972.88;;;-2.24;100.00
17054;BME280;8643;48.824;11.422;2023-02-16T04:28:47;97979.59;;;-2.15;100.00
17054;BME280;8643;48.824;11.422;2023-02-16T04:31:16;97977.59;;;-2.19;100.00
17054;BME280;8643;48.824;11.422;2023-02-16T04:33:44;97977.38;;;-2.18;100.00
17054;BME280;8643;48.824;11.422;2023-02-16T04:36:12;97979.44;;;-2.20;100.00
17054;BME280;8643;48.824;11.422;2023-02-16T04:38:42;97980.63;;;-2.16;100.00
17054;BME280;8643;48.824;11.422;2023-02-16T04:41:11;97979.91;;;-2.23;100.00
17054;BME280;8643;48.824;11.422;2023-02-16T04:43:39;97982.13;;;-2.20;100.00
17054;BME280;8643;48.824;11.422;2023-02-16T04:46:08;97980.34;;;-2.26;100.00
17054;BME280;8643;48.824;11.422;2023-02-16T04:48:37;97976.69;;;-2.32;100.00
17054;BME280;8643;48.824;11.422;2023-02-16T04:51:06;97968.78;;;-2.27;100.00
17054;BME280;8643;48.824;11.422;2023-02-16T04:53:34;97966.72;;;-2.25;100.00
17054;BME280;8643;48.824;11.422;2023-02-16T04:56:08;97973.78;;;-2.30;100.00
17054;BME280;8643;48.824;11.422;2023-02-16T04:58:37;97963.03;;;-2.30;100.00
17054;BME280;8643;48.824;11.422;2023-02-16T05:01:06;97972.75;;;-2.29;100.00
17054;BME280;8643;48.824;11.422;2023-02-16T05:03:35;97972.00;;;-2.18;100.00
17054;BME280;8643;48.824;11.422;2023-02-16T05:06:04;97977.53;;;-2.31;100.00
17054;BME280;8643;48.824;11.422;2023-02-16T05:08:33;97981.22;;;-2.32;100.00
17054;BME280;8643;48.824;11.422;2023-02-16T05:11:03;97979.13;;;-2.30;100.00
17054;BME280;8643;48.824;11.422;2023-02-16T05:13:49;97980.44;;;-2.33;100.00
17054;BME280;8643;48.824;11.422;2023-02-16T05:16:35;97993.16;;;-2.28;100.00
17054;BME280;8643;48.824;11.422;2023-02-16T05:19:04;98004.88;;;-2.23;100.00
17054;BME280;8643;48.824;11.422;2023-02-16T05:21:33;98004.88;;;-2.23;100.00
17054;BME280;8643;48.824;11.422;2023-02-16T05:24:05;98002.41;;;-2.24;100.00
17054;BME280;8643;48.824;11.422;2023-02-16T05:26:37;98011.25;;;-2.24;100.00
17054;BME280;8643;48.824;11.422;2023-02-16T05:29:05;98003.22;;;-2.24;100.00
17054;BME280;8643;48.824;11.422;2023-02-16T05:31:34;98009.25;;;-2.28;100.00
17054;BME280;8643;48.824;11.422;2023-02-16T05:34:02;98004.72;;;-2.28;100.00
17054;BME280;8643;48.824;11.422;2023-02-16T05:36:31;98014.16;;;-2.25;100.00
17054;BME280;8643;48.824;11.422;2023-02-16T05:38:59;98010.59;;;-2.37;100.00
17054;BME280;8643;48.824;11.422;2023-02-16T05:41:28;98012.13;;;-2.48;100.00
17054;BME280;8643;48.824;11.422;2023-02-16T05:44:00;98012.69;;;-2.40;100.00
17054;BME280;8643;48.824;11.422;2023-02-16T05:46:32;98002.69;;;-2.32;100.00
17054;BME280;8643;48.824;11.422;2023-02-16T05:49:02;98008.34;;;-2.22;100.00
17054;BME280;8643;48.824;11.422;2023-02-16T05:51:32;98010.00;;;-2.21;100.00
17054;BME280;8643;48.824;11.422;2023-02-16T05:54:01;98014.03;;;-2.30;100.00
17054;BME280;8643;48.824;11.422;2023-02-16T05:56:29;98019.09;;;-2.22;100.00
17054;BME280;8643;48.824;11.422;2023-02-16T05:58:59;98014.25;;;-2.32;100.00
17054;BME280;8643;48.824;11.422;2023-02-16T06:01:28;98013.50;;;-2.39;100.00
17054;BME280;8643;48.824;11.422;2023-02-16T06:03:56;98016.41;;;-2.41;100.00
17054;BME280;8643;48.824;11.422;2023-02-16T06:06:25;98017.06;;;-2.27;100.00
17054;BME280;8643;48.824;11.422;2023-02-16T06:08:53;98023.56;;;-2.16;100.00
17054;BME280;8643;48.824;11.422;2023-02-16T06:11:22;98024.59;;;-2.17;100.00
17054;BME280;8643;48.824;11.422;2023-02-16T06:14:10;98028.44;;;-2.25;100.00
17054;BME280;8643;48.824;11.422;2023-02-16T06:16:41;98033.78;;;-2.25;100.00
17054;BME280;8643;48.824;11.422;2023-02-16T06:19:12;98032.44;;;-2.15;100.00
17054;BME280;8643;48.824;11.422;2023-02-16T06:21:41;98036.31;;;-2.11;100.00
17054;BME280;8643;48.824;11.422;2023-02-16T06:24:12;98036.53;;;-2.31;100.00
17054;BME280;8643;48.824;11.422;2023-02-16T06:26:40;98037.34;;;-2.31;100.00
17054;BME280;8643;48.824;11.422;2023-02-16T06:29:10;98037.94;;;-2.29;100.00
17054;BME280;8643;48.824;11.422;2023-02-16T06:31:39;98043.09;;;-2.27;100.00
17054;BME280;8643;48.824;11.422;2023-02-16T06:34:07;98044.81;;;-2.33;100.00
17054;BME280;8643;48.824;11.422;2023-02-16T06:36:36;98046.66;;;-2.33;100.00
17054;BME280;8643;48.824;11.422;2023-02-16T06:39:08;98043.91;;;-2.27;100.00
17054;BME280;8643;48.824;11.422;2023-02-16T06:41:40;98038.25;;;-2.18;100.00
17054;BME280;8643;48.824;11.422;2023-02-16T06:44:12;98056.50;;;-2.09;100.00
17054;BME280;8643;48.824;11.422;2023-02-16T06:46:43;98056.44;;;-2.21;100.00
17054;BME280;8643;48.824;11.422;2023-02-16T06:49:15;98046.66;;;-2.33;100.00
17054;BME280;8643;48.824;11.422;2023-02-16T06:51:45;98050.03;;;-2.19;100.00
17054;BME280;8643;48.824;11.422;2023-02-16T06:54:14;98047.44;;;-2.26;100.00
17054;BME280;8643;48.824;11.422;2023-02-16T06:56:43;98046.38;;;-2.25;100.00
17054;BME280;8643;48.824;11.422;2023-02-16T06:59:13;98044.00;;;-2.15;100.00
17054;BME280;8643;48.824;11.422;2023-02-16T07:01:41;98037.44;;;-2.19;100.00
17054;BME280;8643;48.824;11.422;2023-02-16T07:04:12;98044.53;;;-2.06;100.00
17054;BME280;8643;48.824;11.422;2023-02-16T07:06:43;98044.59;;;-2.13;100.00
17054;BME280;8643;48.824;11.422;2023-02-16T07:09:11;98047.28;;;-2.13;100.00
17054;BME280;8643;48.824;11.422;2023-02-16T07:11:40;98048.59;;;-2.22;100.00
17054;BME280;8643;48.824;11.422;2023-02-16T07:14:08;98055.69;;;-2.28;100.00
17054;BME280;8643;48.824;11.422;2023-02-16T07:16:38;98053.53;;;-2.19;100.00
17054;BME280;8643;48.824;11.422;2023-02-16T07:19:07;98058.38;;;-2.09;100.00
17054;BME280;8643;48.824;11.422;2023-02-16T07:21:35;98060.41;;;-2.23;100.00
17054;BME280;8643;48.824;11.422;2023-02-16T07:24:04;98068.91;;;-2.26;100.00
17054;BME280;8643;48.824;11.422;2023-02-16T07:26:33;98067.84;;;-2.25;100.00
17054;BME280;8643;48.824;11.422;2023-02-16T07:29:04;98060.91;;;-2.33;100.00
17054;BME280;8643;48.824;11.422;2023-02-16T07:31:33;98057.25;;;-2.20;100.00
17054;BME280;8643;48.824;11.422;2023-02-16T07:34:03;98060.19;;;-2.03;100.00
17054;BME280;8643;48.824;11.422;2023-02-16T07:36:32;98064.28;;;-2.00;100.00
17054;BME280;8643;48.824;11.422;2023-02-16T07:39:00;98066.63;;;-1.86;100.00
17054;BME280;8643;48.824;11.422;2023-02-16T07:41:34;98069.38;;;-1.74;100.00
17054;BME280;8643;48.824;11.422;2023-02-16T07:44:07;98066.22;;;-1.71;100.00
17054;BME280;8643;48.824;11.422;2023-02-16T07:46:35;98074.72;;;-1.74;100.00
17054;BME280;8643;48.824;11.422;2023-02-16T07:49:05;98074.97;;;-1.75;100.00
17054;BME280;8643;48.824;11.422;2023-02-16T07:51:33;98075.31;;;-1.72;100.00
17054;BME280;8643;48.824;11.422;2023-02-16T07:54:02;98077.41;;;-1.74;100.00
17054;BME280;8643;48.824;11.422;2023-02-16T07:56:34;98070.31;;;-1.68;100.00
17054;BME280;8643;48.824;11.422;2023-02-16T07:59:03;98075.19;;;-1.77;100.00
17054;BME280;8643;48.824;11.422;2023-02-16T08:01:32;98073.59;;;-1.85;100.00
17054;BME280;8643;48.824;11.422;2023-02-16T08:04:01;98080.13;;;-1.92;100.00
17054;BME280;8643;48.824;11.422;2023-02-16T08:06:33;98069.59;;;-1.94;100.00
17054;BME280;8643;48.824;11.422;2023-02-16T08:09:02;98069.66;;;-1.82;100.00
17054;BME280;8643;48.824;11.422;2023-02-16T08:11:31;98073.09;;;-1.75;100.00
17054;BME280;8643;48.824;11.422;2023-02-16T08:13:59;98077.94;;;-1.65;100.00
17054;BME280;8643;48.824;11.422;2023-02-16T08:16:28;98071.16;;;-1.68;100.00
17054;BME280;8643;48.824;11.422;2023-02-16T08:18:59;98077.94;;;-1.65;100.00
17054;BME280;8643;48.824;11.422;2023-02-16T08:21:31;98079.28;;;-1.74;100.00
17054;BME280;8643;48.824;11.422;2023-02-16T08:24:02;98059.78;;;-1.70;100.00
17054;BME280;8643;48.824;11.422;2023-02-16T08:26:35;98065.16;;;-1.70;100.00
17054;BME280;8643;48.824;11.422;2023-02-16T08:29:06;98062.25;;;-1.50;100.00
17054;BME280;8643;48.824;11.422;2023-02-16T08:31:36;98066.03;;;-1.39;100.00
17054;BME280;8643;48.824;11.422;2023-02-16T08:34:06;98071.16;;;-1.19;100.00
17054;BME280;8643;48.824;11.422;2023-02-16T08:36:38;98065.13;;;-1.02;100.00
17054;BME280;8643;48.824;11.422;2023-02-16T08:39:12;98068.41;;;-1.00;100.00
17054;BME280;8643;48.824;11.422;2023-02-16T08:41:42;98061.81;;;-1.04;100.00
17054;BME280;8643;48.824;11.422;2023-02-16T08:44:11;98065.31;;;-1.16;100.00
17054;BME280;8643;48.824;11.422;2023-02-16T08:46:44;98065.59;;;-1.05;100.00
17054;BME280;8643;48.824;11.422;2023-02-16T08:49:15;98066.34;;;-0.86;100.00
17054;BME280;8643;48.824;11.422;2023-02-16T08:51:50;98056.78;;;-0.70;100.00
17054;BME280;8643;48.824;11.422;2023-02-16T08:54:23;98060.41;;;-0.77;100.00
17054;BME280;8643;48.824;11.422;2023-02-16T08:56:53;98066.69;;;-0.83;100.00
17054;BME280;8643;48.824;11.422;2023-02-16T08:59:23;98076.34;;;-1.05;100.00
17054;BME280;8643;48.824;11.422;2023-02-16T09:01:55;98070.38;;;-1.07;100.00
17054;BME280;8643;48.824;11.422;2023-02-16T09:04:24;98076.63;;;-0.83;100.00
17054;BME280;8643;48.824;11.422;2023-02-16T09:06:56;98076.22;;;-0.57;100.00
17054;BME280;8643;48.824;11.422;2023-02-16T09:09:26;98079.47;;;-0.78;100.00
17054;BME280;8643;48.824;11.422;2023-02-16T09:11:55;98086.00;;;-0.62;100.00
17054;BME280;8643;48.824;11.422;2023-02-16T09:14:24;98065.81;;;-0.53;100.00
17054;BME280;8643;48.824;11.422;2023-02-16T09:16:52;98074.16;;;-0.31;100.00
17054;BME280;8643;48.824;11.422;2023-02-16T09:19:20;98077.41;;;-0.29;100.00
17054;BME280;8643;48.824;11.422;2023-02-16T09:21:49;98077.63;;;-0.19;100.00
17054;BME280;8643;48.824;11.422;2023-02-16T09:24:19;98083.03;;;-0.19;100.00
17054;BME280;8643;48.824;11.422;2023-02-16T09:26:48;98078.44;;;-0.53;100.00
17054;BME280;8643;48.824;11.422;2023-02-16T09:29:16;98083.94;;;-0.48;100.00
17054;BME280;8643;48.824;11.422;2023-02-16T09:31:44;98079.97;;;-0.22;100.00
17054;BME280;8643;48.824;11.422;2023-02-16T09:34:17;98084.56;;;-0.23;100.00
17054;BME280;8643;48.824;11.422;2023-02-16T09:36:47;98082.91;;;-0.24;100.00
17054;BME280;8643;48.824;11.422;2023-02-16T09:39:16;98095.19;;;-0.28;100.00
17054;BME280;8643;48.824;11.422;2023-02-16T09:42:08;98086.53;;;0.06;100.00
17054;BME280;8643;48.824;11.422;2023-02-16T09:44:50;98084.19;;;0.09;100.00
17054;BME280;8643;48.824;11.422;2023-02-16T09:47:26;98084.28;;;0.14;100.00
17054;BME280;8643;48.824;11.422;2023-02-16T09:49:59;98095.81;;;0.50;100.00
17054;BME280;8643;48.824;11.422;2023-02-16T09:52:36;98085.63;;;0.93;100.00
17054;BME280;8643;48.824;11.422;2023-02-16T09:55:11;98088.16;;;1.00;100.00
17054;BME280;8643;48.824;11.422;2023-02-16T09:57:54;98082.84;;;1.05;100.00
17054;BME280;8643;48.824;11.422;2023-02-16T10:00:40;98087.44;;;1.04;100.00
17054;BME280;8643;48.824;11.422;2023-02-16T10:03:45;98085.94;;;1.59;100.00
17054;BME280;8643;48.824;11.422;2023-02-16T10:06:35;98075.47;;;2.19;100.00
17054;BME280;8643;48.824;11.422;2023-02-16T10:09:12;98080.84;;;1.63;100.00
17054;BME280;8643;48.824;11.422;2023-02-16T10:11:51;98076.97;;;1.08;100.00
17054;BME280;8643;48.824;11.422;2023-02-16T10:14:33;98079.66;;;2.10;100.00
17054;BME280;8643;48.824;11.422;2023-02-16T10:17:15;98071.88;;;2.13;100.00
17054;BME280;8643;48.824;11.422;2023-02-16T10:19:52;98077.75;;;2.71;100.00
17054;BME280;8643;48.824;11.422;2023-02-16T10:22:32;98067.28;;;3.02;100.00
17054;BME280;8643;48.824;11.422;2023-02-16T10:25:10;98071.78;;;3.51;100.00
17054;BME280;8643;48.824;11.422;2023-02-16T10:27:44;98067.34;;;3.40;100.00
17054;BME280;8643;48.824;11.422;2023-02-16T10:30:19;98068.00;;;3.52;100.00
17054;BME280;8643;48.824;11.422;2023-02-16T10:32:56;98057.22;;;3.57;100.00
17054;BME280;8643;48.824;11.422;2023-02-16T10:35:39;98066.19;;;3.30;100.00
17054;BME280;8643;48.824;11.422;2023-02-16T10:38:21;98067.59;;;3.38;100.00
17054;BME280;8643;48.824;11.422;2023-02-16T10:40:57;98065.97;;;3.37;100.00
17054;BME280;8643;48.824;11.422;2023-02-16T10:43:41;98061.66;;;4.16;100.00
17054;BME280;8643;48.824;11.422;2023-02-16T10:46:20;98059.75;;;4.17;100.00
17054;BME280;8643;48.824;11.422;2023-02-16T10:48:52;98069.81;;;2.87;100.00
17054;BME280;8643;48.824;11.422;2023-02-16T10:51:25;98066.28;;;2.86;100.00
17054;BME280;8643;48.824;11.422;2023-02-16T10:54:00;98061.56;;;2.99;100.00
17054;BME280;8643;48.824;11.422;2023-02-16T10:56:44;98050.91;;;3.19;100.00
17054;BME280;8643;48.824;11.422;2023-02-16T10:59:21;98042.31;;;3.60;100.00
17054;BME280;8643;48.824;11.422;2023-02-16T11:01:53;98034.94;;;4.35;100.00
17054;BME280;8643;48.824;11.422;2023-02-16T11:04:37;98040.34;;;5.76;100.00
17054;BME280;8643;48.824;11.422;2023-02-16T11:07:10;98038.41;;;5.81;100.00
17054;BME280;8643;48.824;11.422;2023-02-16T11:09:40;98030.03;;;5.31;100.00
17054;BME280;8643;48.824;11.422;2023-02-16T11:12:28;98033.25;;;5.49;100.00
17054;BME280;8643;48.824;11.422;2023-02-16T11:15:02;98025.59;;;6.13;100.00
17054;BME280;8643;48.824;11.422;2023-02-16T11:17:49;98022.34;;;6.11;100.00
17054;BME280;8643;48.824;11.422;2023-02-16T11:20:29;98023.19;;;6.71;100.00
17054;BME280;8643;48.824;11.422;2023-02-16T11:23:21;98024.56;;;6.03;100.00
17054;BME280;8643;48.824;11.422;2023-02-16T11:25:58;98024.91;;;6.52;100.00
17054;BME280;8643;48.824;11.422;2023-02-16T11:28:33;98010.13;;;8.35;100.00
17054;BME280;8643;48.824;11.422;2023-02-16T11:31:14;98010.25;;;8.92;100.00
17054;BME280;8643;48.824;11.422;2023-02-16T11:33:58;98011.56;;;8.76;99.01
17054;BME280;8643;48.824;11.422;2023-02-16T11:36:34;98005.38;;;8.89;100.00
17054;BME280;8643;48.824;11.422;2023-02-16T11:39:16;97996.06;;;8.90;98.52
17054;BME280;8643;48.824;11.422;2023-02-16T11:41:50;98000.03;;;8.60;100.00
17054;BME280;8643;48.824;11.422;2023-02-16T11:44:30;98001.69;;;8.80;98.64
17054;BME280;8643;48.824;11.422;2023-02-16T11:47:02;97991.25;;;9.20;96.71
17054;BME280;8643;48.824;11.422;2023-02-16T11:49:35;97983.56;;;9.22;95.02
17054;BME280;8643;48.824;11.422;2023-02-16T11:52:24;97990.66;;;9.89;90.86
17054;BME280;8643;48.824;11.422;2023-02-16T11:54:56;97986.56;;;10.61;88.33
17054;BME280;8643;48.824;11.422;2023-02-16T11:57:33;97982.50;;;11.09;82.24
17054;BME280;8643;48.824;11.422;2023-02-16T12:00:14;97977.63;;;11.96;77.73
17054;BME280;8643;48.824;11.422;2023-02-16T12:03:15;97974.47;;;12.60;72.19
17054;BME280;8643;48.824;11.422;2023-02-16T12:06:06;97966.53;;;12.68;70.77
17054;BME280;8643;48.824;11.422;2023-02-16T12:09:02;97967.25;;;13.26;69.98
17054;BME280;8643;48.824;11.422;2023-02-16T12:11:44;97963.06;;;13.54;67.11
17054;BME280;8643;48.824;11.422;2023-02-16T12:14:32;97969.50;;;13.59;62.30
17054;BME280;8643;48.824;11.422;2023-02-16T12:17:17;97963.91;;;11.96;68.27
17054;BME280;8643;48.824;11.422;2023-02-16T12:19:56;97960.72;;;12.52;67.43
17054;BME280;8643;48.824;11.422;2023-02-16T12:22:41;97964.16;;;12.83;65.77
17054;BME280;8643;48.824;11.422;2023-02-16T12:25:25;97955.81;;;13.88;63.27
17054;BME280;8643;48.824;11.422;2023-02-16T12:28:07;97953.41;;;14.64;59.84
17054;BME280;8643;48.824;11.422;2023-02-16T12:30:55;97957.31;;;14.63;60.05
17054;BME280;8643;48.824;11.422;2023-02-16T12:33:38;97955.56;;;14.49;59.20
17054;BME280;8643;48.824;11.422;2023-02-16T12:36:36;97947.25;;;14.28;59.86
17054;BME280;8643;48.824;11.422;2023-02-16T12:39:17;97940.28;;;14.31;61.10
17054;BME280;8643;48.824;11.422;2023-02-16T12:42:11;97930.16;;;15.37;60.90
17054;BME280;8643;48.824;11.422;2023-02-16T12:44:48;97935.72;;;15.83;59.34
17054;BME280;8643;48.824;11.422;2023-02-16T12:47:25;97934.13;;;15.61;59.41
17054;BME280;8643;48.824;11.422;2023-02-16T12:50:01;97929.53;;;15.31;57.23
17054;BME280;8643;48.824;11.422;2023-02-16T12:52:37;97931.22;;;15.78;57.73
17054;BME280;8643;48.824;11.422;2023-02-16T12:55:20;97916.94;;;15.43;57.97
17054;BME280;8643;48.824;11.422;2023-02-16T12:58:01;97918.59;;;15.23;58.34
17054;BME280;8643;48.824;11.422;2023-02-16T13:00:40;97915.00;;;14.59;57.68
17054;BME280;8643;48.824;11.422;2023-02-16T13:03:23;97910.34;;;13.82;60.26
17054;BME280;8643;48.824;11.422;2023-02-16T13:06:07;97902.25;;;14.45;59.31
17054;BME280;8643;48.824;11.422;2023-02-16T13:08:44;97905.38;;;13.75;60.30
17054;BME280;8643;48.824;11.422;2023-02-16T13:11:22;97897.13;;;12.27;66.25
17054;BME280;8643;48.824;11.422;2023-02-16T13:14:02;97894.56;;;11.90;66.48
17054;BME280;8643;48.824;11.422;2023-02-16T13:16:42;97896.63;;;11.76;69.24
17054;BME280;8643;48.824;11.422;2023-02-16T13:19:13;97889.56;;;12.33;67.85
17054;BME280;8643;48.824;11.422;2023-02-16T13:22:18;97887.69;;;12.77;67.32
17054;BME280;8643;48.824;11.422;2023-02-16T13:25:20;97884.91;;;12.59;65.97
17054;BME280;8643;48.824;11.422;2023-02-16T13:28:10;97875.84;;;13.37;65.75
17054;BME280;8643;48.824;11.422;2023-02-16T13:31:14;97875.75;;;14.32;61.59
17054;BME280;8643;48.824;11.422;2023-02-16T13:34:04;97872.66;;;15.51;58.92
17054;BME280;8643;48.824;11.422;2023-02-16T13:36:55;97866.47;;;16.78;54.92